Time;durP1;ratioP1;P1;durP2;ratioP2;P2;SDS_P1;SDS_P2;PMS_P1;PMS_P2;Temp;Humidity;BMP_temperature;BMP_pressure;BME280_temperature;BME280_humidity;BME280_pressure;Samples;Min_cycle;Max_cycle;Signal;HPM_P1;HPM_P2
2024/02/01 00:00:00;;;;;;;9.63;7.13;;;;;;;;;;4973577;28;20229;-84
2024/02/01 00:02:30;;;;;;;7.37;6.67;;;;;;;;;;4970999;28;20236;-85
2024/02/01 00:04:58;;;;;;;8.37;7.57;;;;;;;;;;4981067;28;20230;-85
2024/02/01 00:07:23;;;;;;;9.60;8.03;;;;;;;;;;4953865;28;20287;-85
2024/02/01 00:09:49;;;;;;;9.37;8.00;;;;;;;;;;5000653;28;20221;-86
2024/02/01 00:12:14;;;;;;;12.50;9.43;;;;;;;;;;4983388;28;20216;-84
2024/02/01 00:14:40;;;;;;;8.43;7.63;;;;;;;;;;4994668;28;20235;-86
2024/02/01 00:17:08;;;;;;;9.67;8.67;;;;;;;;;;5008096;28;20235;-85
2024/02/01 00:19:34;;;;;;;11.47;9.20;;;;;;;;;;5009615;28;20228;-85
2024/02/01 00:21:59;;;;;;;11.30;9.57;;;;;;;;;;4988205;28;20240;-86
2024/02/01 00:24:25;;;;;;;11.23;10.10;;;;;;;;;;4967085;28;20255;-85
2024/02/01 00:26:50;;;;;;;10.77;9.60;;;;;;;;;;5014843;28;20716;-84
2024/02/01 00:29:16;;;;;;;13.73;9.80;;;;;;;;;;5019722;28;20213;-85
2024/02/01 00:31:44;;;;;;;13.63;10.67;;;;;;;;;;4999078;28;20263;-85
2024/02/01 00:34:09;;;;;;;13.90;11.03;;;;;;;;;;4997126;28;20228;-86
2024/02/01 00:36:35;;;;;;;12.30;11.07;;;;;;;;;;4993474;28;20587;-85
2024/02/01 00:39:00;;;;;;;13.27;11.27;;;;;;;;;;5016603;28;20271;-84
2024/02/01 00:41:26;;;;;;;14.77;11.43;;;;;;;;;;4986305;28;20229;-86
2024/02/01 00:43:52;;;;;;;13.37;11.60;;;;;;;;;;5006796;28;20228;-86
2024/02/01 00:46:20;;;;;;;16.03;12.37;;;;;;;;;;4987234;28;20217;-86
2024/02/01 00:48:46;;;;;;;14.50;11.87;;;;;;;;;;4996580;28;20224;-86
2024/02/01 00:51:11;;;;;;;14.97;12.70;;;;;;;;;;5010493;28;20217;-84
2024/02/01 00:53:37;;;;;;;15.57;12.67;;;;;;;;;;4989951;28;20581;-85
2024/02/01 00:56:04;;;;;;;14.67;13.17;;;;;;;;;;5018828;28;20220;-84
2024/02/01 00:58:32;;;;;;;15.87;13.67;;;;;;;;;;4989651;28;20212;-88
2024/02/01 01:00:58;;;;;;;16.20;14.37;;;;;;;;;;4999711;28;20243;-85
2024/02/01 01:03:24;;;;;;;18.23;14.77;;;;;;;;;;5012803;28;20233;-86
2024/02/01 01:05:49;;;;;;;16.43;14.50;;;;;;;;;;5001257;28;20799;-83
2024/02/01 01:08:18;;;;;;;16.23;14.53;;;;;;;;;;4983428;28;20226;-84
2024/02/01 01:10:43;;;;;;;18.73;16.87;;;;;;;;;;4992407;28;20228;-87
2024/02/01 01:13:09;;;;;;;18.60;16.60;;;;;;;;;;5015811;28;20280;-86
2024/02/01 01:15:37;;;;;;;20.57;16.70;;;;;;;;;;4989481;28;20258;-86
2024/02/01 01:18:03;;;;;;;19.73;17.23;;;;;;;;;;4992809;28;20276;-84
2024/02/01 01:20:29;;;;;;;17.37;15.67;;;;;;;;;;5003826;28;20201;-86
2024/02/01 01:22:57;;;;;;;21.27;17.23;;;;;;;;;;4998290;28;20229;-84
2024/02/01 01:25:22;;;;;;;20.30;17.73;;;;;;;;;;4972506;28;20276;-85
2024/02/01 01:27:48;;;;;;;18.83;16.83;;;;;;;;;;5004707;28;20746;-83
2024/02/01 01:30:15;;;;;;;17.77;15.97;;;;;;;;;;5000380;28;20218;-85
2024/02/01 01:32:41;;;;;;;18.80;16.93;;;;;;;;;;4997131;28;20733;-85
2024/02/01 01:35:09;;;;;;;19.53;17.00;;;;;;;;;;4994896;28;20953;-84
2024/02/01 01:37:34;;;;;;;19.90;17.83;;;;;;;;;;5013482;28;20672;-87
2024/02/01 01:40:00;;;;;;;21.10;17.60;;;;;;;;;;4997211;28;20213;-83
2024/02/01 01:42:26;;;;;;;19.90;17.80;;;;;;;;;;4988630;28;20595;-84
2024/02/01 01:44:54;;;;;;;20.07;17.37;;;;;;;;;;4980874;28;20227;-86
2024/02/01 01:47:23;;;;;;;21.07;18.50;;;;;;;;;;4996616;28;20220;-83
2024/02/01 01:49:51;;;;;;;20.43;18.33;;;;;;;;;;4992642;28;20225;-82
2024/02/01 01:52:18;;;;;;;24.30;19.57;;;;;;;;;;5007601;28;20290;-83
2024/02/01 01:54:44;;;;;;;20.03;17.97;;;;;;;;;;4991195;28;20233;-84
2024/02/01 01:57:09;;;;;;;20.83;18.53;;;;;;;;;;5011603;28;20258;-83
2024/02/01 01:59:37;;;;;;;22.90;18.57;;;;;;;;;;5005795;28;20267;-86
2024/02/01 02:02:05;;;;;;;21.80;19.13;;;;;;;;;;4997605;28;20244;-81
2024/02/01 02:04:33;;;;;;;21.73;19.37;;;;;;;;;;5009830;28;20819;-87
2024/02/01 02:06:59;;;;;;;18.83;16.43;;;;;;;;;;5012123;28;20232;-84
2024/02/01 02:09:27;;;;;;;20.60;18.53;;;;;;;;;;5011471;28;20237;-84
2024/02/01 02:11:55;;;;;;;20.63;18.43;;;;;;;;;;5027305;28;20233;-86
2024/02/01 02:14:25;;;;;;;18.13;16.33;;;;;;;;;;4991518;28;20232;-84
2024/02/01 02:16:51;;;;;;;19.10;17.10;;;;;;;;;;5002340;28;20230;-85
2024/02/01 02:19:18;;;;;;;20.57;18.37;;;;;;;;;;5008676;28;20215;-84
2024/02/01 02:21:48;;;;;;;20.03;18.03;;;;;;;;;;4979191;28;20229;-85
2024/02/01 02:24:17;;;;;;;19.53;17.63;;;;;;;;;;5003263;28;20239;-84
2024/02/01 02:26:45;;;;;;;19.67;17.63;;;;;;;;;;4988091;28;20217;-86
2024/02/01 02:29:14;;;;;;;19.93;17.83;;;;;;;;;;4988164;28;20243;-85
2024/02/01 02:31:43;;;;;;;19.07;17.03;;;;;;;;;;4999259;28;20234;-87
2024/02/01 02:34:09;;;;;;;19.40;17.43;;;;;;;;;;5002019;28;20284;-87
2024/02/01 02:36:40;;;;;;;18.80;17.00;;;;;;;;;;4957555;28;20216;-86
2024/02/01 02:39:09;;;;;;;17.13;15.43;;;;;;;;;;4987390;28;20310;-86
2024/02/01 02:41:35;;;;;;;19.83;17.93;;;;;;;;;;4984783;28;20604;-87
2024/02/01 02:44:09;;;;;;;19.90;17.80;;;;;;;;;;4997990;28;20220;-86
2024/02/01 02:46:34;;;;;;;20.03;17.77;;;;;;;;;;4994671;28;20241;-87
2024/02/01 02:49:00;;;;;;;19.33;17.53;;;;;;;;;;5005858;28;20278;-85
2024/02/01 02:51:28;;;;;;;18.77;16.90;;;;;;;;;;4975978;28;20252;-88
2024/02/01 02:53:56;;;;;;;19.03;17.10;;;;;;;;;;4995600;28;20318;-86
2024/02/01 02:56:22;;;;;;;20.40;18.30;;;;;;;;;;4974606;28;20243;-86
2024/02/01 02:58:50;;;;;;;19.20;17.20;;;;;;;;;;4997624;28;20290;-85
2024/02/01 03:01:18;;;;;;;18.20;16.30;;;;;;;;;;4977718;28;20279;-88
2024/02/01 03:03:44;;;;;;;18.40;16.40;;;;;;;;;;4997469;28;20999;-87
2024/02/01 03:06:12;;;;;;;18.97;17.07;;;;;;;;;;4990312;28;20228;-86
2024/02/01 03:08:42;;;;;;;18.17;16.27;;;;;;;;;;4995395;28;20235;-87
2024/02/01 03:11:10;;;;;;;19.13;16.97;;;;;;;;;;5001881;28;20259;-88
2024/02/01 03:13:40;;;;;;;19.17;17.20;;;;;;;;;;4979750;28;20322;-88
2024/02/01 03:16:21;;;;;;;19.10;17.30;;;;;;;;;;4985829;28;20225;-85
2024/02/01 03:18:47;;;;;;;20.17;18.17;;;;;;;;;;4998682;28;20217;-88
2024/02/01 03:21:15;;;;;;;19.07;17.17;;;;;;;;;;4984727;28;20302;-87
2024/02/01 03:23:44;;;;;;;19.17;17.27;;;;;;;;;;4983150;28;20278;-86
2024/02/01 03:26:13;;;;;;;17.93;16.10;;;;;;;;;;4975972;28;20601;-87
2024/02/01 03:28:43;;;;;;;18.00;16.20;;;;;;;;;;4997850;28;20280;-86
2024/02/01 03:31:09;;;;;;;19.23;17.23;;;;;;;;;;4981577;28;20784;-88
2024/02/01 03:33:44;;;;;;;18.50;16.80;;;;;;;;;;4993870;28;20229;-84
2024/02/01 03:36:10;;;;;;;18.23;16.20;;;;;;;;;;4989136;28;20922;-88
2024/02/01 03:38:36;;;;;;;19.27;17.33;;;;;;;;;;4971551;28;20232;-85
2024/02/01 03:41:05;;;;;;;18.00;16.30;;;;;;;;;;4978023;28;20227;-85
2024/02/01 03:43:33;;;;;;;17.87;15.77;;;;;;;;;;4994912;28;20308;-86
2024/02/01 03:46:01;;;;;;;18.40;15.97;;;;;;;;;;5006785;28;20219;-85
2024/02/01 03:48:29;;;;;;;17.47;15.77;;;;;;;;;;4986237;28;20225;-85
2024/02/01 03:50:55;;;;;;;18.60;16.70;;;;;;;;;;4997204;28;20213;-88
2024/02/01 03:53:20;;;;;;;17.80;16.10;;;;;;;;;;4992745;28;20278;-86
2024/02/01 03:55:51;;;;;;;16.43;14.77;;;;;;;;;;4984122;28;20223;-87
2024/02/01 04:02:03;;;;;;;17.00;15.30;;;;;;;;;;5039443;28;20287;-86
2024/02/01 04:04:32;;;;;;;17.30;15.20;;;;;;;;;;4962808;28;20611;-88
2024/02/01 04:06:58;;;;;;;17.97;16.23;;;;;;;;;;4977728;28;20266;-88
2024/02/01 04:09:24;;;;;;;17.93;16.07;;;;;;;;;;4963215;28;20220;-86
2024/02/01 04:11:50;;;;;;;17.47;15.63;;;;;;;;;;4985215;28;20323;-86
2024/02/01 04:14:15;;;;;;;18.67;16.70;;;;;;;;;;4986361;28;20224;-85
2024/02/01 04:16:43;;;;;;;17.33;15.53;;;;;;;;;;5006332;28;20227;-87
2024/02/01 04:19:09;;;;;;;18.03;16.10;;;;;;;;;;5004611;28;20228;-87
2024/02/01 04:21:34;;;;;;;17.93;16.13;;;;;;;;;;4981030;28;20316;-86
2024/02/01 04:24:00;;;;;;;17.60;15.83;;;;;;;;;;5005051;28;20240;-84
2024/02/01 04:26:28;;;;;;;20.27;16.73;;;;;;;;;;4992211;28;20227;-87
2024/02/01 04:28:53;;;;;;;18.67;16.23;;;;;;;;;;4976653;28;20736;-87
2024/02/01 04:31:19;;;;;;;19.07;16.43;;;;;;;;;;5008031;28;20212;-87
2024/02/01 04:33:46;;;;;;;18.37;16.03;;;;;;;;;;4985498;28;20744;-86
2024/02/01 04:36:12;;;;;;;22.47;16.27;;;;;;;;;;4989883;28;20282;-87
2024/02/01 04:38:37;;;;;;;17.50;15.37;;;;;;;;;;4964256;28;20221;-87
2024/02/01 04:41:06;;;;;;;19.73;15.40;;;;;;;;;;4982227;28;20225;-88
2024/02/01 04:43:32;;;;;;;19.90;15.70;;;;;;;;;;5010431;28;20265;-86
2024/02/01 04:45:58;;;;;;;17.70;15.70;;;;;;;;;;4991019;28;20262;-83
2024/02/01 04:48:23;;;;;;;19.90;14.20;;;;;;;;;;4993697;28;20224;-87
2024/02/01 04:50:50;;;;;;;20.57;14.20;;;;;;;;;;4976227;28;20221;-85
2024/02/01 04:53:15;;;;;;;20.23;15.03;;;;;;;;;;5014042;28;20233;-87
2024/02/01 04:55:41;;;;;;;22.40;14.07;;;;;;;;;;4998270;28;20352;-88
2024/02/01 04:58:08;;;;;;;19.13;14.67;;;;;;;;;;4993885;28;20753;-86
2024/02/01 05:00:34;;;;;;;17.80;13.10;;;;;;;;;;4976164;28;20279;-87
2024/02/01 05:03:02;;;;;;;19.07;13.20;;;;;;;;;;4967904;28;20907;-86
2024/02/01 05:05:28;;;;;;;19.33;12.90;;;;;;;;;;4998798;28;20219;-87
2024/02/01 05:07:56;;;;;;;19.13;12.83;;;;;;;;;;4997650;28;20212;-85
2024/02/01 05:10:26;;;;;;;21.60;12.97;;;;;;;;;;5008697;28;20587;-86
2024/02/01 05:12:54;;;;;;;22.60;13.03;;;;;;;;;;4983521;28;20224;-86
2024/02/01 05:15:21;;;;;;;19.07;12.37;;;;;;;;;;4981423;28;21154;-87
2024/02/01 05:17:50;;;;;;;21.20;11.37;;;;;;;;;;4984457;28;20263;-87
2024/02/01 05:20:17;;;;;;;17.57;11.00;;;;;;;;;;4987879;28;20312;-89
2024/02/01 05:22:45;;;;;;;19.60;10.97;;;;;;;;;;4993935;28;20224;-85
2024/02/01 05:25:23;;;;;;;17.43;11.27;;;;;;;;;;4985533;28;20709;-87
2024/02/01 05:27:52;;;;;;;17.80;10.00;;;;;;;;;;4990996;28;20688;-86
2024/02/01 05:30:19;;;;;;;18.40;9.43;;;;;;;;;;4989383;28;20650;-86
2024/02/01 05:32:51;;;;;;;17.57;9.53;;;;;;;;;;4981835;28;20225;-84
2024/02/01 05:35:27;;;;;;;17.63;8.73;;;;;;;;;;5004168;28;20247;-85
2024/02/01 05:37:56;;;;;;;17.47;8.20;;;;;;;;;;4986049;28;20228;-86
2024/02/01 05:40:22;;;;;;;19.27;7.90;;;;;;;;;;4994069;28;20294;-84
2024/02/01 05:42:48;;;;;;;21.00;7.90;;;;;;;;;;4983562;28;20329;-85
2024/02/01 05:45:18;;;;;;;18.80;7.50;;;;;;;;;;4983181;28;20592;-86
2024/02/01 05:47:46;;;;;;;23.27;7.53;;;;;;;;;;4987544;28;20695;-86
2024/02/01 05:50:14;;;;;;;20.23;7.13;;;;;;;;;;4988809;28;20217;-86
2024/02/01 05:52:40;;;;;;;14.33;6.33;;;;;;;;;;5000397;28;20227;-85
2024/02/01 05:55:13;;;;;;;19.20;6.67;;;;;;;;;;4983338;28;20220;-88
2024/02/01 05:57:39;;;;;;;17.13;6.17;;;;;;;;;;4979705;28;20220;-86
2024/02/01 06:00:06;;;;;;;19.30;6.23;;;;;;;;;;4994523;28;20306;-87
2024/02/01 06:02:32;;;;;;;20.53;5.87;;;;;;;;;;4981090;28;20235;-86
2024/02/01 06:04:58;;;;;;;13.43;5.40;;;;;;;;;;4973911;28;20224;-86
2024/02/01 06:07:25;;;;;;;17.90;5.67;;;;;;;;;;4995488;28;20216;-85
2024/02/01 06:09:52;;;;;;;19.70;5.10;;;;;;;;;;4969212;28;20245;-84
2024/02/01 06:12:18;;;;;;;18.90;5.30;;;;;;;;;;4974624;28;20230;-83
2024/02/01 06:14:44;;;;;;;18.70;5.20;;;;;;;;;;4989304;28;20220;-83
2024/02/01 06:17:09;;;;;;;19.93;6.00;;;;;;;;;;4996503;28;20220;-84
2024/02/01 06:19:35;;;;;;;19.57;5.27;;;;;;;;;;4992165;28;20704;-83
2024/02/01 06:22:05;;;;;;;20.80;4.93;;;;;;;;;;4979736;28;20235;-88
2024/02/01 06:24:34;;;;;;;18.17;4.00;;;;;;;;;;4987709;28;20716;-85
2024/02/01 06:27:04;;;;;;;22.07;5.00;;;;;;;;;;5002482;28;20370;-85
2024/02/01 06:29:37;;;;;;;24.40;5.20;;;;;;;;;;4967859;28;20232;-85
2024/02/01 06:32:13;;;;;;;20.40;4.67;;;;;;;;;;4985627;28;20799;-87
2024/02/01 06:34:38;;;;;;;22.93;5.30;;;;;;;;;;4990596;28;20216;-85
2024/02/01 06:37:08;;;;;;;24.30;4.87;;;;;;;;;;4984251;28;20217;-86
2024/02/01 06:42:23;;;;;;;26.60;4.67;;;;;;;;;;4979384;28;20275;-83
2024/02/01 06:44:57;;;;;;;22.53;4.97;;;;;;;;;;5008028;28;20245;-85
2024/02/01 06:47:36;;;;;;;18.03;4.07;;;;;;;;;;5001105;28;20222;-85
2024/02/01 06:50:09;;;;;;;26.20;4.77;;;;;;;;;;5003215;28;20220;-85
2024/02/01 06:52:39;;;;;;;23.20;5.03;;;;;;;;;;4998147;28;20216;-82
2024/02/01 07:16:24;;;;;;;18.73;4.07;;;;;;;;;;4989888;28;20231;-84
2024/02/01 07:19:23;;;;;;;27.73;4.30;;;;;;;;;;4983710;28;20439;-83
2024/02/01 07:57:51;;;;;;;29.83;4.40;;;;;;;;;;4985337;28;20320;-86
2024/02/01 08:00:27;;;;;;;26.07;4.70;;;;;;;;;;4996198;28;20224;-85
2024/02/01 08:03:22;;;;;;;26.00;5.30;;;;;;;;;;4985543;28;20232;-83
2024/02/01 08:08:35;;;;;;;27.97;4.80;;;;;;;;;;4987796;28;20223;-86
2024/02/01 08:11:02;;;;;;;29.93;5.67;;;;;;;;;;4999917;28;20224;-84
2024/02/01 08:13:29;;;;;;;26.73;5.00;;;;;;;;;;4989660;28;20221;-88
2024/02/01 08:15:57;;;;;;;24.33;4.43;;;;;;;;;;4987132;28;20224;-84
2024/02/01 08:18:26;;;;;;;23.40;4.77;;;;;;;;;;4995960;28;20225;-84
2024/02/01 08:20:52;;;;;;;24.70;5.03;;;;;;;;;;5000020;28;20221;-84
2024/02/01 08:23:24;;;;;;;29.93;4.60;;;;;;;;;;4999682;28;20320;-86
2024/02/01 08:25:50;;;;;;;24.47;5.27;;;;;;;;;;4996569;28;20698;-85
2024/02/01 08:28:18;;;;;;;21.20;5.03;;;;;;;;;;4970917;28;20691;-85
2024/02/01 08:30:48;;;;;;;24.93;5.20;;;;;;;;;;4990304;28;20789;-85
2024/02/01 08:33:19;;;;;;;22.00;4.60;;;;;;;;;;4982464;28;20231;-86
2024/02/01 08:35:49;;;;;;;25.37;5.30;;;;;;;;;;4989470;28;20224;-85
2024/02/01 08:38:15;;;;;;;30.57;5.43;;;;;;;;;;4990167;28;20221;-87
2024/02/01 08:40:41;;;;;;;22.90;4.67;;;;;;;;;;4962343;28;20218;-84
2024/02/01 08:43:10;;;;;;;23.03;4.40;;;;;;;;;;4995171;28;20260;-83
2024/02/01 08:45:44;;;;;;;26.13;5.27;;;;;;;;;;4982777;28;20223;-85
2024/02/01 08:48:09;;;;;;;27.80;5.03;;;;;;;;;;5000889;28;20225;-85
2024/02/01 08:50:42;;;;;;;21.53;4.37;;;;;;;;;;4989474;28;20641;-86
2024/02/01 08:53:14;;;;;;;23.63;5.00;;;;;;;;;;4999706;28;20286;-84
2024/02/01 08:55:45;;;;;;;25.60;4.70;;;;;;;;;;4975060;28;20227;-83
2024/02/01 08:58:14;;;;;;;23.40;4.87;;;;;;;;;;5004949;28;20252;-84
2024/02/01 09:00:42;;;;;;;22.70;5.13;;;;;;;;;;4988009;28;20211;-86
2024/02/01 09:03:11;;;;;;;23.37;4.47;;;;;;;;;;4978505;28;20286;-84
2024/02/01 09:05:38;;;;;;;28.03;5.43;;;;;;;;;;4994524;28;20235;-82
2024/02/01 09:08:05;;;;;;;27.13;4.87;;;;;;;;;;4992016;28;20231;-84
2024/02/01 09:10:31;;;;;;;27.90;5.13;;;;;;;;;;5011344;28;20235;-84
2024/02/01 09:12:57;;;;;;;22.10;4.70;;;;;;;;;;4976845;28;20217;-84
2024/02/01 09:15:22;;;;;;;23.67;5.00;;;;;;;;;;4992862;28;20221;-84
2024/02/01 09:17:48;;;;;;;20.57;3.63;;;;;;;;;;4986614;28;20307;-88
2024/02/01 09:20:20;;;;;;;26.00;4.50;;;;;;;;;;5001284;28;20221;-85
2024/02/01 09:22:57;;;;;;;24.13;4.57;;;;;;;;;;4978344;28;20755;-85
2024/02/01 09:25:24;;;;;;;25.70;4.17;;;;;;;;;;4998555;28;20231;-84
2024/02/01 09:27:51;;;;;;;22.77;5.27;;;;;;;;;;4984737;28;20213;-85
2024/02/01 09:30:20;;;;;;;26.43;5.03;;;;;;;;;;4992103;28;20236;-84
2024/02/01 09:32:49;;;;;;;22.20;4.63;;;;;;;;;;4996972;28;20227;-86
2024/02/01 09:35:16;;;;;;;23.80;4.40;;;;;;;;;;4999825;28;20216;-85
2024/02/01 09:37:51;;;;;;;23.33;4.63;;;;;;;;;;5000790;28;20220;-85
2024/02/01 09:40:22;;;;;;;22.63;4.67;;;;;;;;;;4960620;28;20224;-86
2024/02/01 09:42:49;;;;;;;25.33;5.03;;;;;;;;;;4987692;28;20304;-84
2024/02/01 09:45:20;;;;;;;25.27;4.83;;;;;;;;;;4985785;28;21182;-84
2024/02/01 09:47:47;;;;;;;22.97;4.60;;;;;;;;;;4974241;28;20224;-85
2024/02/01 09:50:14;;;;;;;24.90;5.10;;;;;;;;;;4997962;28;20217;-85
2024/02/01 09:52:44;;;;;;;21.17;4.67;;;;;;;;;;4982406;28;20219;-86
2024/02/01 09:55:19;;;;;;;26.20;4.80;;;;;;;;;;4978130;28;20225;-83
2024/02/01 09:57:53;;;;;;;22.87;4.27;;;;;;;;;;5005781;28;20284;-84
2024/02/01 10:00:27;;;;;;;23.87;4.97;;;;;;;;;;4999452;28;20217;-82
2024/02/01 10:02:56;;;;;;;18.90;4.47;;;;;;;;;;4972216;28;20229;-86
2024/02/01 10:05:28;;;;;;;23.03;4.53;;;;;;;;;;4990836;28;20229;-84
2024/02/01 10:07:55;;;;;;;27.67;5.20;;;;;;;;;;5010899;28;20222;-82
2024/02/01 10:10:21;;;;;;;20.10;4.20;;;;;;;;;;4987546;28;20212;-83
2024/02/01 10:12:46;;;;;;;24.93;4.47;;;;;;;;;;5014842;28;20209;-84
2024/02/01 10:15:20;;;;;;;21.20;4.53;;;;;;;;;;4992865;28;20216;-84
2024/02/01 10:17:53;;;;;;;21.67;4.60;;;;;;;;;;4977024;28;20248;-84
2024/02/01 10:20:39;;;;;;;21.23;4.40;;;;;;;;;;5005449;28;20303;-84
2024/02/01 10:23:15;;;;;;;18.70;4.50;;;;;;;;;;5006994;28;20266;-85
2024/02/01 10:25:59;;;;;;;18.67;4.47;;;;;;;;;;5000032;28;20641;-83
2024/02/01 10:28:33;;;;;;;22.33;4.90;;;;;;;;;;4993127;28;20227;-86
2024/02/01 10:31:06;;;;;;;25.17;4.83;;;;;;;;;;4982598;28;20271;-83
2024/02/01 10:33:31;;;;;;;20.43;4.30;;;;;;;;;;5001015;28;20228;-84
2024/02/01 10:35:59;;;;;;;24.60;4.87;;;;;;;;;;4985124;28;20280;-84
2024/02/01 10:38:26;;;;;;;16.80;3.70;;;;;;;;;;4983169;28;20224;-82
2024/02/01 10:40:58;;;;;;;21.40;4.77;;;;;;;;;;4993090;28;20677;-84
2024/02/01 10:43:31;;;;;;;24.97;4.77;;;;;;;;;;5025155;28;20237;-87
2024/02/01 10:46:08;;;;;;;23.27;4.57;;;;;;;;;;4988064;28;20219;-85
2024/02/01 10:49:06;;;;;;;20.03;4.40;;;;;;;;;;4990127;28;20228;-85
2024/02/01 10:51:33;;;;;;;21.60;4.33;;;;;;;;;;4998752;28;20235;-85
2024/02/01 10:54:02;;;;;;;21.23;4.13;;;;;;;;;;4999000;28;20243;-86
2024/02/01 10:56:29;;;;;;;21.43;4.30;;;;;;;;;;4990742;28;20240;-86
2024/02/01 10:58:56;;;;;;;16.87;4.13;;;;;;;;;;4982826;28;20220;-88
2024/02/01 11:01:26;;;;;;;16.97;4.30;;;;;;;;;;4977187;28;20292;-86
2024/02/01 11:04:00;;;;;;;21.17;4.33;;;;;;;;;;4992624;28;20229;-84
2024/02/01 11:06:31;;;;;;;21.50;4.57;;;;;;;;;;4973131;28;20229;-83
2024/02/01 11:09:18;;;;;;;18.80;5.07;;;;;;;;;;4988852;28;20252;-85
2024/02/01 11:11:52;;;;;;;17.50;4.33;;;;;;;;;;4966463;28;20216;-85
2024/02/01 11:14:19;;;;;;;17.93;4.50;;;;;;;;;;5002128;28;20370;-84
2024/02/01 11:16:51;;;;;;;19.60;4.93;;;;;;;;;;4987660;28;20219;-84
2024/02/01 11:19:25;;;;;;;17.70;4.10;;;;;;;;;;4986371;28;20213;-88
2024/02/01 11:21:54;;;;;;;15.83;4.13;;;;;;;;;;5004725;28;20316;-83
2024/02/01 11:24:29;;;;;;;22.27;4.30;;;;;;;;;;4975277;28;20224;-84
2024/02/01 11:26:57;;;;;;;24.87;5.10;;;;;;;;;;4966616;28;20239;-85
2024/02/01 11:29:27;;;;;;;19.83;4.33;;;;;;;;;;4984086;28;20283;-86
2024/02/01 11:31:57;;;;;;;19.90;4.43;;;;;;;;;;4970127;28;20219;-84
2024/02/01 11:34:25;;;;;;;20.53;4.07;;;;;;;;;;4990399;28;20221;-85
2024/02/01 11:36:51;;;;;;;16.00;4.50;;;;;;;;;;4995744;28;20291;-84
2024/02/01 11:39:17;;;;;;;14.27;3.63;;;;;;;;;;4981302;28;20312;-86
2024/02/01 11:41:46;;;;;;;21.77;4.40;;;;;;;;;;4980186;28;20298;-86
2024/02/01 11:44:23;;;;;;;24.87;4.27;;;;;;;;;;4977020;28;20235;-84
2024/02/01 11:46:51;;;;;;;16.37;4.07;;;;;;;;;;4997985;28;20223;-84
2024/02/01 11:49:20;;;;;;;17.03;3.90;;;;;;;;;;4991437;28;20277;-83
2024/02/01 11:51:50;;;;;;;19.30;4.43;;;;;;;;;;4974784;28;20231;-83
2024/02/01 11:54:16;;;;;;;17.80;4.90;;;;;;;;;;4980695;28;20861;-86
2024/02/01 11:56:44;;;;;;;15.33;3.57;;;;;;;;;;4982732;28;20916;-83
2024/02/01 11:59:15;;;;;;;17.63;4.00;;;;;;;;;;4970943;28;20302;-85
2024/02/01 12:01:42;;;;;;;16.87;3.90;;;;;;;;;;5001324;28;20232;-88
2024/02/01 12:04:12;;;;;;;20.67;4.40;;;;;;;;;;4995649;28;20413;-85
2024/02/01 12:06:45;;;;;;;23.30;4.23;;;;;;;;;;4970212;28;20223;-87
2024/02/01 12:09:14;;;;;;;16.70;4.10;;;;;;;;;;4998248;28;20229;-87
2024/02/01 12:11:41;;;;;;;15.27;3.77;;;;;;;;;;5002141;28;22054;-83
2024/02/01 12:14:11;;;;;;;17.27;3.93;;;;;;;;;;4984223;28;20223;-84
2024/02/01 12:16:39;;;;;;;16.87;4.10;;;;;;;;;;4984935;28;20279;-84
2024/02/01 12:19:12;;;;;;;20.50;3.70;;;;;;;;;;4979284;28;20354;-85
2024/02/01 12:21:42;;;;;;;19.83;4.33;;;;;;;;;;4981901;28;20319;-84
2024/02/01 12:24:08;;;;;;;20.17;4.50;;;;;;;;;;4999436;28;20217;-85
2024/02/01 12:26:34;;;;;;;14.03;3.43;;;;;;;;;;4984515;28;20302;-84
2024/02/01 12:29:01;;;;;;;21.20;3.53;;;;;;;;;;4976492;28;20259;-86
2024/02/01 12:31:32;;;;;;;14.77;3.20;;;;;;;;;;5001882;28;20278;-86
2024/02/01 12:33:58;;;;;;;16.60;3.67;;;;;;;;;;4986325;28;20233;-79
2024/02/01 12:36:28;;;;;;;15.87;3.97;;;;;;;;;;4994875;28;20284;-78
2024/02/01 12:38:56;;;;;;;16.23;3.37;;;;;;;;;;4960662;28;20220;-80
2024/02/01 12:41:21;;;;;;;18.53;4.07;;;;;;;;;;4992538;28;20223;-78
2024/02/01 12:43:51;;;;;;;16.87;3.87;;;;;;;;;;5003986;28;20226;-79
2024/02/01 12:46:23;;;;;;;16.20;3.57;;;;;;;;;;4991968;28;20224;-77
2024/02/01 12:48:49;;;;;;;17.53;3.90;;;;;;;;;;4996236;28;20228;-78
2024/02/01 12:51:15;;;;;;;14.03;3.63;;;;;;;;;;4993550;28;20216;-78
2024/02/01 12:53:45;;;;;;;13.53;3.27;;;;;;;;;;4996890;28;20233;-80
2024/02/01 12:56:10;;;;;;;19.57;3.80;;;;;;;;;;4957421;28;20225;-78
2024/02/01 12:58:39;;;;;;;15.33;3.40;;;;;;;;;;4994450;28;20233;-78
2024/02/01 13:01:08;;;;;;;17.33;3.90;;;;;;;;;;5021272;28;20809;-78
2024/02/01 13:03:33;;;;;;;14.43;3.47;;;;;;;;;;4995106;28;20225;-76
2024/02/01 13:05:59;;;;;;;16.10;3.33;;;;;;;;;;5012809;28;20212;-79
2024/02/01 13:08:26;;;;;;;18.20;3.90;;;;;;;;;;4993041;28;20268;-78
2024/02/01 13:11:02;;;;;;;14.20;3.27;;;;;;;;;;5006930;28;20224;-81
2024/02/01 13:13:28;;;;;;;16.77;3.93;;;;;;;;;;4967831;28;20656;-80
2024/02/01 13:15:56;;;;;;;16.63;3.83;;;;;;;;;;4982269;28;20230;-78
2024/02/01 13:18:22;;;;;;;17.13;3.50;;;;;;;;;;5007282;28;20244;-80
2024/02/01 13:20:50;;;;;;;15.23;3.47;;;;;;;;;;4984620;28;20254;-82
2024/02/01 13:23:17;;;;;;;16.13;3.77;;;;;;;;;;4972536;28;20233;-79
2024/02/01 13:25:45;;;;;;;11.27;3.60;;;;;;;;;;4980035;28;20358;-79
2024/02/01 13:28:13;;;;;;;16.33;3.80;;;;;;;;;;5006182;28;20232;-77
2024/02/01 13:30:39;;;;;;;17.70;4.20;;;;;;;;;;4980295;28;20211;-77
2024/02/01 13:33:07;;;;;;;16.10;3.67;;;;;;;;;;4996173;28;22045;-82
2024/02/01 13:35:38;;;;;;;16.63;3.43;;;;;;;;;;4982181;28;20311;-81
2024/02/01 13:38:10;;;;;;;16.10;3.20;;;;;;;;;;4997930;28;20224;-81
2024/02/01 13:40:41;;;;;;;15.23;3.33;;;;;;;;;;4976283;28;20592;-79
2024/02/01 13:43:06;;;;;;;14.53;3.83;;;;;;;;;;4977848;28;20279;-79
2024/02/01 13:45:32;;;;;;;15.80;3.57;;;;;;;;;;4976477;28;20228;-81
2024/02/01 13:48:00;;;;;;;16.90;3.40;;;;;;;;;;4973686;28;20224;-80
2024/02/01 13:50:25;;;;;;;15.67;3.43;;;;;;;;;;5003239;28;20737;-81
2024/02/01 13:52:55;;;;;;;16.13;3.40;;;;;;;;;;4961940;28;20220;-78
2024/02/01 13:55:24;;;;;;;13.23;3.23;;;;;;;;;;4976564;28;20224;-80
2024/02/01 13:57:52;;;;;;;13.33;3.20;;;;;;;;;;4975063;28;20243;-81
2024/02/01 14:00:19;;;;;;;17.40;3.33;;;;;;;;;;4989382;28;20284;-80
2024/02/01 14:02:48;;;;;;;17.67;3.33;;;;;;;;;;4982954;28;20326;-78
2024/02/01 14:05:13;;;;;;;14.97;3.70;;;;;;;;;;4973383;28;20223;-80
2024/02/01 14:07:43;;;;;;;16.00;3.43;;;;;;;;;;4980758;28;20267;-80
2024/02/01 14:10:10;;;;;;;14.67;3.50;;;;;;;;;;4990083;28;20225;-80
2024/02/01 14:12:39;;;;;;;14.63;3.27;;;;;;;;;;4985969;28;20331;-79
2024/02/01 14:15:05;;;;;;;15.53;3.17;;;;;;;;;;4982204;28;20269;-80
2024/02/01 14:17:31;;;;;;;16.50;3.30;;;;;;;;;;4982130;28;20225;-80
2024/02/01 14:19:57;;;;;;;13.70;3.23;;;;;;;;;;5002011;28;20302;-79
2024/02/01 14:22:24;;;;;;;13.53;3.13;;;;;;;;;;4983121;28;20271;-80
2024/02/01 14:24:52;;;;;;;11.17;2.73;;;;;;;;;;4987795;28;20306;-80
2024/02/01 14:27:20;;;;;;;12.70;2.67;;;;;;;;;;5003691;28;20236;-82
2024/02/01 14:29:46;;;;;;;13.93;3.00;;;;;;;;;;4977129;28;20232;-81
2024/02/01 14:32:14;;;;;;;14.37;3.67;;;;;;;;;;4981858;28;20221;-80
2024/02/01 14:34:41;;;;;;;13.83;3.10;;;;;;;;;;4999359;28;20252;-81
2024/02/01 14:37:06;;;;;;;10.10;2.77;;;;;;;;;;4984661;28;20308;-80
2024/02/01 14:39:32;;;;;;;11.43;2.97;;;;;;;;;;4994677;28;20236;-82
2024/02/01 14:42:00;;;;;;;15.33;3.10;;;;;;;;;;5000783;28;20697;-80
2024/02/01 14:44:31;;;;;;;11.43;3.10;;;;;;;;;;4972721;28;1111845;-80
2024/02/01 14:46:56;;;;;;;14.80;3.03;;;;;;;;;;5000637;28;20254;-82
2024/02/01 14:49:25;;;;;;;15.80;3.43;;;;;;;;;;4981660;28;20275;-80
2024/02/01 14:51:50;;;;;;;17.43;3.70;;;;;;;;;;4998917;28;20208;-79
2024/02/01 14:54:16;;;;;;;13.13;3.03;;;;;;;;;;4997720;28;20236;-81
2024/02/01 14:56:41;;;;;;;15.37;3.17;;;;;;;;;;4999130;28;20228;-81
2024/02/01 14:59:08;;;;;;;13.80;3.40;;;;;;;;;;4979738;28;20223;-80
2024/02/01 15:01:33;;;;;;;10.70;2.80;;;;;;;;;;5000957;28;20228;-82
2024/02/01 15:03:59;;;;;;;10.87;2.43;;;;;;;;;;4974081;28;20220;-81
2024/02/01 15:06:28;;;;;;;12.53;2.90;;;;;;;;;;4982811;28;20223;-79
2024/02/01 15:09:00;;;;;;;16.90;2.87;;;;;;;;;;4989663;28;20293;-81
2024/02/01 15:11:30;;;;;;;11.90;2.83;;;;;;;;;;4994682;28;20749;-79
2024/02/01 15:13:57;;;;;;;13.97;2.60;;;;;;;;;;4998715;28;20281;-83
2024/02/01 15:16:27;;;;;;;12.53;2.70;;;;;;;;;;4989696;28;21017;-81
2024/02/01 15:18:52;;;;;;;9.43;2.37;;;;;;;;;;4997719;28;20233;-80
2024/02/01 15:21:21;;;;;;;13.03;2.40;;;;;;;;;;4984327;28;20217;-78
2024/02/01 15:23:49;;;;;;;14.70;3.53;;;;;;;;;;5021395;28;20244;-79
2024/02/01 15:26:14;;;;;;;9.93;2.50;;;;;;;;;;5015906;28;20309;-80
2024/02/01 15:28:40;;;;;;;10.87;2.50;;;;;;;;;;5031063;28;20227;-80
2024/02/01 15:31:10;;;;;;;12.37;2.43;;;;;;;;;;4991954;28;20693;-80
2024/02/01 15:33:39;;;;;;;12.23;2.90;;;;;;;;;;4981047;28;20236;-80
2024/02/01 15:36:09;;;;;;;11.97;2.93;;;;;;;;;;4992751;28;20213;-78
2024/02/01 15:38:34;;;;;;;13.63;2.70;;;;;;;;;;5001245;28;20248;-79